Seattle, WA

12:25 AM PST on December 20, 2014 (GMT -0800)
Herrera, Inc. | Change Station
CLOSE
Current Station
Personal Weather Station
Location: Seattle, WA
Elevation: 121 ft
Nearby Weather Stations
Active Advisory: Areal Flood Watch Active Notice: Record Report

Elev 121 ft 47.62 °N, 122.34 °W | Updated 1 second ago

Rain
Rain
46.9 °F
Feels Like 47 °F
N
1.0
Wind Variable Wind from SW
Gusts 9.0 mph

Today
High -- | Low -- °F
--% Chance of Precip.
Yesterday
High -- | Low -- °F
Precip. -- in
7:54 AM 4:19 PM
Waning Crescent, 4% visible
Pressure 29.87 in
Visibility 8.0 miles
Clouds Overcast 4500 ft
Windchill 47 °F
Dew Point 41 °F
Humidity 80%
Rainfall 0.02 in
Snow Depth Not available.
UV 0 out of 12
Pollen .40 out of 12
Air Quality Not available.
Flu Activity Not available.
METAR KBFI 200753Z 13004KT 8SM -RA OVC045 08/04 A2987 RMK AO2 RAB05 SLP114 P0002 T00830039 401220072

More Conditions Fewer Conditions

Pressure 29.87 in
Visibility 8.0 miles
Clouds Overcast 4500 ft
Windchill 47 °F
Dew Point 41 °F
Humidity 80%
Rainfall 0.02 in
Snow Depth Not available.
UV 0 out of 12
Pollen .40 out of 12
Air Quality Not available.
Flu Activity Not available.
METAR KBFI 200753Z 13004KT 8SM -RA OVC045 08/04 A2987 RMK AO2 RAB05 SLP114 P0002 T00830039 401220072

More Conditions Fewer Conditions

10-Day Weather Forecast

Almanac

Astronomy

Dec. 20, 2014 Rise Set
Actual Time
Civil Twilight
Nautical Twilight
Astronomical Twilight
Moon
Length of Visible Light
Length of Day
Tomorrow will be .
, % of the Moon is Illuminated

Today's Extremes

State Highs State Lows

Community

WunderPhotos

Upload Photos

1,779,146 photos uploaded!

WunderBlogs® & News

Nearby

Air Quality

  Air Quality AQ Index Pollutant
Not available.

Snow Depth

Station Depth Elevation

Earthquake Activity

City Distance Mag. Time & Date
Minimum magnitude displayed is 2.5.

Coastal Water Temperatures

Place Temperature

Nearby Weather Stations